createdAt,value
2023-03-24T00:04:33.151Z,47.78
2023-03-24T00:09:40.937Z,47.78
2023-03-24T00:14:49.277Z,47.56
2023-03-24T00:19:59.605Z,48.02
2023-03-24T00:25:07.896Z,47.58
2023-03-24T00:30:16.402Z,47.39
2023-03-24T00:35:26.712Z,47.56
2023-03-24T00:40:34.432Z,47.84
2023-03-24T00:45:46.103Z,47.61
2023-03-24T00:50:56.572Z,47.76
2023-03-24T00:56:04.588Z,47.60
2023-03-24T01:01:12.302Z,47.67
2023-03-24T01:06:25.136Z,47.60
2023-03-24T01:11:40.229Z,47.96
2023-03-24T01:16:48.175Z,47.77
2023-03-24T01:21:59.699Z,47.71
2023-03-24T01:27:07.695Z,47.52
2023-03-24T01:32:15.583Z,47.71
2023-03-24T01:37:26.358Z,47.89
2023-03-24T01:42:34.083Z,47.69
2023-03-24T01:47:41.842Z,47.67
2023-03-24T01:52:52.179Z,47.83
2023-03-24T01:58:03.261Z,47.77
2023-03-24T02:03:14.923Z,47.67
2023-03-24T02:08:31.319Z,48.08
2023-03-24T02:13:39.077Z,47.73
2023-03-24T02:18:56.440Z,47.56
2023-03-24T02:24:42.920Z,48.19
2023-03-24T02:30:29.748Z,48.01
2023-03-24T02:35:54.540Z,48.08
2023-03-24T02:41:12.712Z,47.67
2023-03-24T02:46:27.166Z,47.90
2023-03-24T02:51:41.804Z,48.10
2023-03-24T02:56:58.929Z,48.10
2023-03-24T03:02:10.754Z,47.68
2023-03-24T03:07:22.633Z,47.89
2023-03-24T03:12:38.643Z,47.94
2023-03-24T03:17:54.063Z,47.90
2023-03-24T03:23:07.645Z,47.68
2023-03-24T03:28:22.173Z,47.90
2023-03-24T03:33:37.595Z,47.80
2023-03-24T03:38:53.133Z,47.83
2023-03-24T03:44:04.006Z,47.67
2023-03-24T03:49:12.460Z,47.79
2023-03-24T03:54:22.171Z,47.55
2023-03-24T03:59:36.393Z,47.54
2023-03-24T04:05:05.807Z,47.67
2023-03-24T04:10:22.587Z,48.02
2023-03-24T04:15:45.580Z,48.12
2023-03-24T04:21:06.472Z,48.16
2023-03-24T04:26:26.360Z,47.88
2023-03-24T04:31:42.130Z,48.24
2023-03-24T04:36:54.723Z,47.91
2023-03-24T04:42:07.405Z,48.08
2023-03-24T04:47:19.664Z,48.01
2023-03-24T04:52:28.112Z,48.22
2023-03-24T04:57:36.182Z,48.13
2023-03-24T05:02:46.456Z,48.41
2023-03-24T05:07:54.819Z,48.37
2023-03-24T05:13:02.408Z,48.38
2023-03-24T05:18:12.726Z,49.06
2023-03-24T05:23:20.554Z,48.70
2023-03-24T05:28:28.185Z,49.18
2023-03-24T05:33:38.544Z,49.80
2023-03-24T05:38:46.404Z,49.35
2023-03-24T05:43:54.011Z,49.73
2023-03-24T05:49:04.669Z,50.58
2023-03-24T05:54:12.342Z,50.56
2023-03-24T05:59:20.019Z,50.87
2023-03-24T06:04:31.402Z,51.13
2023-03-24T06:09:42.634Z,51.48
2023-03-24T06:14:50.110Z,51.13
2023-03-24T06:20:04.989Z,51.51
2023-03-24T06:25:13.996Z,51.74
2023-03-24T06:30:21.839Z,52.10
2023-03-24T06:35:32.882Z,52.79
2023-03-24T06:40:40.493Z,52.50
2023-03-24T06:45:48.951Z,52.78
2023-03-24T06:50:59.933Z,52.81
2023-03-24T06:56:08.656Z,52.86
2023-03-24T07:01:16.692Z,53.00
2023-03-24T07:06:26.981Z,53.98
2023-03-24T07:11:34.640Z,53.83
2023-03-24T07:16:42.333Z,53.82
2023-03-24T07:21:53.070Z,55.68
2023-03-24T07:27:00.717Z,54.88
2023-03-24T07:32:08.824Z,55.39
2023-03-24T07:37:20.936Z,56.25
2023-03-24T07:42:28.613Z,56.09
2023-03-24T07:47:37.744Z,56.74
2023-03-24T07:52:51.155Z,57.89
2023-03-24T07:57:59.477Z,56.37
2023-03-24T08:03:09.795Z,56.71
2023-03-24T08:08:20.228Z,57.31
2023-03-24T08:13:28.217Z,57.28
2023-03-24T08:18:36.032Z,57.11
2023-03-24T08:23:46.246Z,57.75
2023-03-24T08:28:53.866Z,56.57
2023-03-24T08:34:01.498Z,56.88
2023-03-24T08:39:12.878Z,57.74
2023-03-24T08:44:21.327Z,57.46
2023-03-24T08:49:28.920Z,57.21
2023-03-24T08:54:39.384Z,58.46
2023-03-24T08:59:49.485Z,57.76
2023-03-24T09:04:58.628Z,57.44
2023-03-24T09:10:11.815Z,58.05
2023-03-24T09:15:19.605Z,57.22
2023-03-24T09:20:27.448Z,57.28
2023-03-24T09:25:37.739Z,57.41
2023-03-24T09:30:45.873Z,57.99
2023-03-24T09:35:59.258Z,58.92
2023-03-24T09:41:20.210Z,58.55
2023-03-24T09:46:34.697Z,58.17
2023-03-24T09:51:47.139Z,58.42
2023-03-24T09:56:58.737Z,58.46
2023-03-24T10:02:13.441Z,58.11
2023-03-24T10:07:30.572Z,58.58
2023-03-24T10:12:43.070Z,57.90
2023-03-24T10:18:00.335Z,57.70
2023-03-24T10:23:23.113Z,56.81
2023-03-24T10:28:41.848Z,56.82
2023-03-24T10:33:49.859Z,56.43
2023-03-24T10:39:06.436Z,55.97
2023-03-24T10:44:27.304Z,56.02
2023-03-24T10:49:34.912Z,55.60
2023-03-24T10:54:57.621Z,55.69
2023-03-24T11:00:15.905Z,55.23
2023-03-24T11:05:30.073Z,55.22
2023-03-24T11:10:38.082Z,54.86
2023-03-24T11:15:56.910Z,55.45
2023-03-24T11:21:07.173Z,54.57
2023-03-24T11:26:18.476Z,54.64
2023-03-24T11:31:32.167Z,54.19
